Terminal Aerodrome Forecast
Issued by NWS Grand Junction, CO

Home | Current Version | Previous Version | Text Only | Print | Product List | Glossary On
Versions: 1 2 3 4 5 6 7 8 9 10 11 12 13 14 15 16 17 18 19 20 21 22 23
000
FTUS45 KGJT 220125 AAA
TAFGJT
TAF AMD
KGJT 220125Z 2201/2224 12010KT P6SM SCT060
     FM220700 12005KT P6SM SCT100
     FM221900 VRB03KT P6SM SCT100
     FM222100 28007KT P6SM SCT100=

USA.gov is the U.S. government's official web portal to all federal, state and local government web resources and services.